sensor_id;sensor_type;location;lat;lon;timestamp;temperature;humidity
11736;DHT22;5924;51.398;7.088;2022-12-20T00:01:48;10.20;99.90
11736;DHT22;5924;51.398;7.088;2022-12-20T00:04:13;10.20;99.90
11736;DHT22;5924;51.398;7.088;2022-12-20T00:06:39;10.30;99.90
11736;DHT22;5924;51.398;7.088;2022-12-20T00:09:07;10.40;99.90
11736;DHT22;5924;51.398;7.088;2022-12-20T00:11:33;10.50;99.90
11736;DHT22;5924;51.398;7.088;2022-12-20T00:13:59;10.60;99.90
11736;DHT22;5924;51.398;7.088;2022-12-20T00:16:27;10.50;99.90
11736;DHT22;5924;51.398;7.088;2022-12-20T00:18:55;10.70;99.90
11736;DHT22;5924;51.398;7.088;2022-12-20T00:21:22;10.70;99.90
11736;DHT22;5924;51.398;7.088;2022-12-20T00:23:48;10.80;99.90
11736;DHT22;5924;51.398;7.088;2022-12-20T00:26:16;10.80;99.90
11736;DHT22;5924;51.398;7.088;2022-12-20T00:28:43;10.80;99.90
11736;DHT22;5924;51.398;7.088;2022-12-20T00:31:11;10.80;99.90
11736;DHT22;5924;51.398;7.088;2022-12-20T00:33:38;10.70;99.90
11736;DHT22;5924;51.398;7.088;2022-12-20T00:36:05;10.70;99.90
11736;DHT22;5924;51.398;7.088;2022-12-20T00:38:31;10.70;99.90
11736;DHT22;5924;51.398;7.088;2022-12-20T00:41:15;10.60;99.90
11736;DHT22;5924;51.398;7.088;2022-12-20T00:43:41;10.50;99.90
11736;DHT22;5924;51.398;7.088;2022-12-20T00:46:09;10.50;99.90
11736;DHT22;5924;51.398;7.088;2022-12-20T00:48:36;10.40;99.90
11736;DHT22;5924;51.398;7.088;2022-12-20T00:51:08;10.30;99.90
11736;DHT22;5924;51.398;7.088;2022-12-20T00:53:35;10.30;99.90
11736;DHT22;5924;51.398;7.088;2022-12-20T00:56:02;10.40;99.90
11736;DHT22;5924;51.398;7.088;2022-12-20T00:58:28;10.30;99.90
11736;DHT22;5924;51.398;7.088;2022-12-20T01:00:54;10.30;99.90
11736;DHT22;5924;51.398;7.088;2022-12-20T01:03:20;10.30;99.90
11736;DHT22;5924;51.398;7.088;2022-12-20T01:05:53;10.30;99.90
11736;DHT22;5924;51.398;7.088;2022-12-20T01:08:20;10.30;99.90
11736;DHT22;5924;51.398;7.088;2022-12-20T01:10:56;10.30;99.90
11736;DHT22;5924;51.398;7.088;2022-12-20T01:13:22;10.20;99.90
11736;DHT22;5924;51.398;7.088;2022-12-20T01:15:47;10.30;99.90
11736;DHT22;5924;51.398;7.088;2022-12-20T01:18:13;10.30;99.90
11736;DHT22;5924;51.398;7.088;2022-12-20T01:20:38;10.30;99.90
11736;DHT22;5924;51.398;7.088;2022-12-20T01:23:04;10.40;99.90
11736;DHT22;5924;51.398;7.088;2022-12-20T01:25:30;10.50;99.90
11736;DHT22;5924;51.398;7.088;2022-12-20T01:27:55;10.50;99.90
11736;DHT22;5924;51.398;7.088;2022-12-20T01:30:21;10.60;99.90
11736;DHT22;5924;51.398;7.088;2022-12-20T01:32:46;10.60;99.90
11736;DHT22;5924;51.398;7.088;2022-12-20T01:35:12;10.60;99.90
11736;DHT22;5924;51.398;7.088;2022-12-20T01:37:38;10.60;99.90
11736;DHT22;5924;51.398;7.088;2022-12-20T01:40:03;10.60;99.90
11736;DHT22;5924;51.398;7.088;2022-12-20T01:42:29;10.60;99.90
11736;DHT22;5924;51.398;7.088;2022-12-20T01:44:58;10.70;99.90
11736;DHT22;5924;51.398;7.088;2022-12-20T01:47:24;10.60;99.90
11736;DHT22;5924;51.398;7.088;2022-12-20T01:49:52;10.50;99.90
11736;DHT22;5924;51.398;7.088;2022-12-20T01:52:25;10.60;99.90
11736;DHT22;5924;51.398;7.088;2022-12-20T01:55:00;10.50;99.90
11736;DHT22;5924;51.398;7.088;2022-12-20T01:57:32;10.50;99.90
11736;DHT22;5924;51.398;7.088;2022-12-20T01:59:59;10.50;99.90
11736;DHT22;5924;51.398;7.088;2022-12-20T02:02:25;10.50;99.90
11736;DHT22;5924;51.398;7.088;2022-12-20T02:04:51;10.50;99.90
11736;DHT22;5924;51.398;7.088;2022-12-20T02:07:20;10.50;99.90
11736;DHT22;5924;51.398;7.088;2022-12-20T02:09:49;10.50;99.90
11736;DHT22;5924;51.398;7.088;2022-12-20T02:12:19;10.40;99.90
11736;DHT22;5924;51.398;7.088;2022-12-20T02:21:11;10.40;99.90
11736;DHT22;5924;51.398;7.088;2022-12-20T02:32:29;10.20;99.90
11736;DHT22;5924;51.398;7.088;2022-12-20T02:34:55;10.10;99.90
11736;DHT22;5924;51.398;7.088;2022-12-20T02:37:21;12.50;99.90
11736;DHT22;5924;51.398;7.088;2022-12-20T02:39:47;10.10;99.90
11736;DHT22;5924;51.398;7.088;2022-12-20T02:42:17;10.10;99.90
11736;DHT22;5924;51.398;7.088;2022-12-20T02:44:48;10.10;99.90
11736;DHT22;5924;51.398;7.088;2022-12-20T02:50:21;10.20;99.90
11736;DHT22;5924;51.398;7.088;2022-12-20T02:52:48;10.30;99.90
11736;DHT22;5924;51.398;7.088;2022-12-20T02:55:15;10.30;99.90
11736;DHT22;5924;51.398;7.088;2022-12-20T02:57:46;10.30;99.90
11736;DHT22;5924;51.398;7.088;2022-12-20T03:00:19;10.30;99.90
11736;DHT22;5924;51.398;7.088;2022-12-20T03:02:46;10.40;99.90
11736;DHT22;5924;51.398;7.088;2022-12-20T03:05:33;10.40;99.90
11736;DHT22;5924;51.398;7.088;2022-12-20T03:07:59;10.40;99.90
11736;DHT22;5924;51.398;7.088;2022-12-20T03:10:25;10.40;99.90
11736;DHT22;5924;51.398;7.088;2022-12-20T03:12:51;10.40;99.90
11736;DHT22;5924;51.398;7.088;2022-12-20T03:15:16;10.30;99.90
11736;DHT22;5924;51.398;7.088;2022-12-20T03:17:42;10.30;99.90
11736;DHT22;5924;51.398;7.088;2022-12-20T03:20:08;10.20;99.90
11736;DHT22;5924;51.398;7.088;2022-12-20T03:22:35;10.20;99.90
11736;DHT22;5924;51.398;7.088;2022-12-20T03:25:01;10.10;99.90
11736;DHT22;5924;51.398;7.088;2022-12-20T03:27:27;10.00;99.90
11736;DHT22;5924;51.398;7.088;2022-12-20T03:29:53;9.90;99.90
11736;DHT22;5924;51.398;7.088;2022-12-20T03:32:19;9.70;99.90
11736;DHT22;5924;51.398;7.088;2022-12-20T03:34:45;9.70;99.90
11736;DHT22;5924;51.398;7.088;2022-12-20T03:37:10;9.60;99.90
11736;DHT22;5924;51.398;7.088;2022-12-20T03:39:36;9.60;99.90
11736;DHT22;5924;51.398;7.088;2022-12-20T03:42:02;9.60;99.90
11736;DHT22;5924;51.398;7.088;2022-12-20T03:44:27;9.60;99.90
11736;DHT22;5924;51.398;7.088;2022-12-20T03:46:53;9.60;99.90
11736;DHT22;5924;51.398;7.088;2022-12-20T03:49:18;9.50;99.90
11736;DHT22;5924;51.398;7.088;2022-12-20T03:51:44;9.40;99.90
11736;DHT22;5924;51.398;7.088;2022-12-20T03:54:10;9.40;99.90
11736;DHT22;5924;51.398;7.088;2022-12-20T03:56:35;9.30;99.90
11736;DHT22;5924;51.398;7.088;2022-12-20T03:59:01;9.30;99.90
11736;DHT22;5924;51.398;7.088;2022-12-20T04:01:28;9.30;99.90
11736;DHT22;5924;51.398;7.088;2022-12-20T04:03:54;9.30;99.90
11736;DHT22;5924;51.398;7.088;2022-12-20T04:06:21;9.30;99.90
11736;DHT22;5924;51.398;7.088;2022-12-20T04:08:48;9.30;99.90
11736;DHT22;5924;51.398;7.088;2022-12-20T04:11:14;9.40;99.90
11736;DHT22;5924;51.398;7.088;2022-12-20T04:13:50;9.50;99.90
11736;DHT22;5924;51.398;7.088;2022-12-20T04:16:18;9.50;99.90
11736;DHT22;5924;51.398;7.088;2022-12-20T04:18:44;9.50;99.90
11736;DHT22;5924;51.398;7.088;2022-12-20T04:21:11;9.50;99.90
11736;DHT22;5924;51.398;7.088;2022-12-20T04:23:38;9.50;99.90
11736;DHT22;5924;51.398;7.088;2022-12-20T04:26:06;9.50;99.90
11736;DHT22;5924;51.398;7.088;2022-12-20T04:28:32;9.40;99.90
11736;DHT22;5924;51.398;7.088;2022-12-20T04:30:58;9.40;99.90
11736;DHT22;5924;51.398;7.088;2022-12-20T04:33:25;9.30;99.90
11736;DHT22;5924;51.398;7.088;2022-12-20T04:35:51;9.30;99.90
11736;DHT22;5924;51.398;7.088;2022-12-20T04:38:18;9.30;99.90
11736;DHT22;5924;51.398;7.088;2022-12-20T04:40:43;9.30;99.90
11736;DHT22;5924;51.398;7.088;2022-12-20T04:43:09;9.30;99.90
11736;DHT22;5924;51.398;7.088;2022-12-20T04:45:35;9.30;99.90
11736;DHT22;5924;51.398;7.088;2022-12-20T04:48:00;9.20;99.90
11736;DHT22;5924;51.398;7.088;2022-12-20T04:50:26;9.30;99.90
11736;DHT22;5924;51.398;7.088;2022-12-20T04:52:52;9.20;99.90
11736;DHT22;5924;51.398;7.088;2022-12-20T04:55:37;9.20;99.90
11736;DHT22;5924;51.398;7.088;2022-12-20T04:58:03;9.20;99.90
11736;DHT22;5924;51.398;7.088;2022-12-20T05:00:29;9.10;99.90
11736;DHT22;5924;51.398;7.088;2022-12-20T05:02:55;9.10;99.90
11736;DHT22;5924;51.398;7.088;2022-12-20T05:05:20;9.10;99.90
11736;DHT22;5924;51.398;7.088;2022-12-20T05:07:46;9.10;99.90
11736;DHT22;5924;51.398;7.088;2022-12-20T05:10:11;9.10;99.90
11736;DHT22;5924;51.398;7.088;2022-12-20T05:12:37;9.10;99.90
11736;DHT22;5924;51.398;7.088;2022-12-20T05:15:03;9.10;99.90
11736;DHT22;5924;51.398;7.088;2022-12-20T05:17:29;9.10;99.90
11736;DHT22;5924;51.398;7.088;2022-12-20T05:19:54;9.10;99.90
11736;DHT22;5924;51.398;7.088;2022-12-20T05:22:20;9.10;99.90
11736;DHT22;5924;51.398;7.088;2022-12-20T05:25:04;9.10;99.90
11736;DHT22;5924;51.398;7.088;2022-12-20T05:27:49;9.00;99.90
11736;DHT22;5924;51.398;7.088;2022-12-20T05:30:14;9.00;99.90
11736;DHT22;5924;51.398;7.088;2022-12-20T05:32:40;9.10;99.90
11736;DHT22;5924;51.398;7.088;2022-12-20T05:35:07;9.00;99.90
11736;DHT22;5924;51.398;7.088;2022-12-20T05:37:32;9.10;99.90
11736;DHT22;5924;51.398;7.088;2022-12-20T05:39:58;9.10;99.90
11736;DHT22;5924;51.398;7.088;2022-12-20T05:42:24;9.10;99.90
11736;DHT22;5924;51.398;7.088;2022-12-20T05:44:49;9.10;99.90
11736;DHT22;5924;51.398;7.088;2022-12-20T05:47:15;9.20;99.90
11736;DHT22;5924;51.398;7.088;2022-12-20T05:49:41;9.20;99.90
11736;DHT22;5924;51.398;7.088;2022-12-20T05:52:07;9.20;99.90
11736;DHT22;5924;51.398;7.088;2022-12-20T05:54:33;9.20;99.90
11736;DHT22;5924;51.398;7.088;2022-12-20T05:56:58;9.20;99.90
11736;DHT22;5924;51.398;7.088;2022-12-20T05:59:24;9.30;99.90
11736;DHT22;5924;51.398;7.088;2022-12-20T06:01:50;9.30;99.90
11736;DHT22;5924;51.398;7.088;2022-12-20T06:04:15;9.40;99.90
11736;DHT22;5924;51.398;7.088;2022-12-20T06:06:41;9.40;99.90
11736;DHT22;5924;51.398;7.088;2022-12-20T06:09:06;9.50;99.90
11736;DHT22;5924;51.398;7.088;2022-12-20T06:11:32;9.50;99.90
11736;DHT22;5924;51.398;7.088;2022-12-20T06:13:58;9.60;99.90
11736;DHT22;5924;51.398;7.088;2022-12-20T06:16:23;9.60;99.90
11736;DHT22;5924;51.398;7.088;2022-12-20T06:18:50;9.60;99.90
11736;DHT22;5924;51.398;7.088;2022-12-20T06:21:15;9.70;99.90
11736;DHT22;5924;51.398;7.088;2022-12-20T06:23:42;9.70;99.90
11736;DHT22;5924;51.398;7.088;2022-12-20T06:26:08;9.70;99.90
11736;DHT22;5924;51.398;7.088;2022-12-20T06:28:34;9.80;99.90
11736;DHT22;5924;51.398;7.088;2022-12-20T06:31:07;9.80;99.90
11736;DHT22;5924;51.398;7.088;2022-12-20T06:33:32;9.80;99.90
11736;DHT22;5924;51.398;7.088;2022-12-20T06:35:58;9.90;99.90
11736;DHT22;5924;51.398;7.088;2022-12-20T06:38:24;9.90;99.90
11736;DHT22;5924;51.398;7.088;2022-12-20T06:40:49;9.90;99.90
11736;DHT22;5924;51.398;7.088;2022-12-20T06:43:15;10.00;99.90
11736;DHT22;5924;51.398;7.088;2022-12-20T06:45:41;10.00;99.90
11736;DHT22;5924;51.398;7.088;2022-12-20T06:48:07;10.00;99.90
11736;DHT22;5924;51.398;7.088;2022-12-20T06:50:33;10.30;99.90
11736;DHT22;5924;51.398;7.088;2022-12-20T06:52:58;10.00;99.90
11736;DHT22;5924;51.398;7.088;2022-12-20T06:55:24;10.00;99.90
11736;DHT22;5924;51.398;7.088;2022-12-20T06:57:50;10.10;99.90
11736;DHT22;5924;51.398;7.088;2022-12-20T07:00:16;10.00;99.90
11736;DHT22;5924;51.398;7.088;2022-12-20T07:02:42;10.10;99.90
11736;DHT22;5924;51.398;7.088;2022-12-20T07:05:07;10.10;99.90
11736;DHT22;5924;51.398;7.088;2022-12-20T07:07:33;10.10;99.90
11736;DHT22;5924;51.398;7.088;2022-12-20T07:09:59;10.00;99.90
11736;DHT22;5924;51.398;7.088;2022-12-20T07:12:24;10.10;99.90
11736;DHT22;5924;51.398;7.088;2022-12-20T07:14:50;10.20;99.90
11736;DHT22;5924;51.398;7.088;2022-12-20T07:17:16;10.20;99.90
11736;DHT22;5924;51.398;7.088;2022-12-20T07:19:41;10.20;99.90
11736;DHT22;5924;51.398;7.088;2022-12-20T07:22:07;10.20;99.90
11736;DHT22;5924;51.398;7.088;2022-12-20T07:24:33;10.20;99.90
11736;DHT22;5924;51.398;7.088;2022-12-20T07:26:59;10.20;99.90
11736;DHT22;5924;51.398;7.088;2022-12-20T07:29:25;10.20;99.90
11736;DHT22;5924;51.398;7.088;2022-12-20T07:31:51;10.10;99.90
11736;DHT22;5924;51.398;7.088;2022-12-20T07:34:17;10.10;99.90
11736;DHT22;5924;51.398;7.088;2022-12-20T07:36:43;10.10;99.90
11736;DHT22;5924;51.398;7.088;2022-12-20T07:39:09;10.20;99.90
11736;DHT22;5924;51.398;7.088;2022-12-20T07:41:35;10.20;99.90
11736;DHT22;5924;51.398;7.088;2022-12-20T07:44:00;10.10;99.90
11736;DHT22;5924;51.398;7.088;2022-12-20T07:46:26;10.20;99.90
11736;DHT22;5924;51.398;7.088;2022-12-20T07:48:52;10.20;99.90
11736;DHT22;5924;51.398;7.088;2022-12-20T07:51:20;10.20;99.90
11736;DHT22;5924;51.398;7.088;2022-12-20T07:54:07;10.20;99.90
11736;DHT22;5924;51.398;7.088;2022-12-20T07:56:35;10.20;99.90
11736;DHT22;5924;51.398;7.088;2022-12-20T07:59:02;10.20;99.90
11736;DHT22;5924;51.398;7.088;2022-12-20T08:01:28;10.20;99.90
11736;DHT22;5924;51.398;7.088;2022-12-20T08:04:00;10.10;99.90
11736;DHT22;5924;51.398;7.088;2022-12-20T08:06:27;10.10;99.90
11736;DHT22;5924;51.398;7.088;2022-12-20T08:08:55;10.10;99.90
11736;DHT22;5924;51.398;7.088;2022-12-20T08:11:23;10.20;99.90
11736;DHT22;5924;51.398;7.088;2022-12-20T08:13:50;10.20;99.90
11736;DHT22;5924;51.398;7.088;2022-12-20T08:16:16;10.20;99.90
11736;DHT22;5924;51.398;7.088;2022-12-20T08:18:41;10.20;99.90
11736;DHT22;5924;51.398;7.088;2022-12-20T08:21:07;10.20;99.90
11736;DHT22;5924;51.398;7.088;2022-12-20T08:23:32;10.20;99.90
11736;DHT22;5924;51.398;7.088;2022-12-20T08:26:01;10.20;99.90
11736;DHT22;5924;51.398;7.088;2022-12-20T08:28:28;10.30;99.90
11736;DHT22;5924;51.398;7.088;2022-12-20T08:31:02;10.50;99.90
11736;DHT22;5924;51.398;7.088;2022-12-20T08:33:29;10.50;99.90
11736;DHT22;5924;51.398;7.088;2022-12-20T08:36:03;10.50;99.90
11736;DHT22;5924;51.398;7.088;2022-12-20T08:38:30;10.60;99.90
11736;DHT22;5924;51.398;7.088;2022-12-20T08:41:05;10.60;99.90
11736;DHT22;5924;51.398;7.088;2022-12-20T08:43:32;10.60;99.90
11736;DHT22;5924;51.398;7.088;2022-12-20T08:45:58;10.60;99.90
11736;DHT22;5924;51.398;7.088;2022-12-20T08:48:24;10.70;99.90
11736;DHT22;5924;51.398;7.088;2022-12-20T08:51:01;10.60;99.90
11736;DHT22;5924;51.398;7.088;2022-12-20T08:53:28;10.60;99.90
11736;DHT22;5924;51.398;7.088;2022-12-20T08:55:58;10.70;99.90
11736;DHT22;5924;51.398;7.088;2022-12-20T08:58:27;10.70;99.90
11736;DHT22;5924;51.398;7.088;2022-12-20T09:00:52;10.80;99.90
11736;DHT22;5924;51.398;7.088;2022-12-20T09:03:18;10.80;99.90
11736;DHT22;5924;51.398;7.088;2022-12-20T09:05:45;10.80;99.90
11736;DHT22;5924;51.398;7.088;2022-12-20T09:08:13;10.80;99.90
11736;DHT22;5924;51.398;7.088;2022-12-20T09:10:38;10.80;99.90
11736;DHT22;5924;51.398;7.088;2022-12-20T09:13:04;10.90;99.90
11736;DHT22;5924;51.398;7.088;2022-12-20T09:15:30;10.90;99.90
11736;DHT22;5924;51.398;7.088;2022-12-20T09:17:56;10.80;99.90
11736;DHT22;5924;51.398;7.088;2022-12-20T09:20:22;10.90;99.90
11736;DHT22;5924;51.398;7.088;2022-12-20T09:22:48;10.90;99.90
11736;DHT22;5924;51.398;7.088;2022-12-20T09:25:13;11.00;99.90
11736;DHT22;5924;51.398;7.088;2022-12-20T09:27:39;11.00;99.90
11736;DHT22;5924;51.398;7.088;2022-12-20T09:30:05;11.00;99.90
11736;DHT22;5924;51.398;7.088;2022-12-20T09:32:31;11.00;99.90
11736;DHT22;5924;51.398;7.088;2022-12-20T09:34:56;10.90;99.90
11736;DHT22;5924;51.398;7.088;2022-12-20T09:37:22;10.90;99.90
11736;DHT22;5924;51.398;7.088;2022-12-20T09:39:48;10.90;99.90
11736;DHT22;5924;51.398;7.088;2022-12-20T09:42:19;10.90;99.90
11736;DHT22;5924;51.398;7.088;2022-12-20T09:44:47;10.80;99.90
11736;DHT22;5924;51.398;7.088;2022-12-20T09:47:22;10.80;99.90
11736;DHT22;5924;51.398;7.088;2022-12-20T09:49:53;10.90;99.90
11736;DHT22;5924;51.398;7.088;2022-12-20T09:53:01;10.90;99.90
11736;DHT22;5924;51.398;7.088;2022-12-20T09:55:43;10.90;99.90
11736;DHT22;5924;51.398;7.088;2022-12-20T09:59:07;11.00;99.90
11736;DHT22;5924;51.398;7.088;2022-12-20T10:01:23;11.00;99.90
11736;DHT22;5924;51.398;7.088;2022-12-20T10:03:49;11.10;99.90
11736;DHT22;5924;51.398;7.088;2022-12-20T10:08:56;11.20;99.90
11736;DHT22;5924;51.398;7.088;2022-12-20T10:17:16;11.20;99.90
11736;DHT22;5924;51.398;7.088;2022-12-20T10:22:46;11.20;99.90
11736;DHT22;5924;51.398;7.088;2022-12-20T10:25:19;11.10;99.90
11736;DHT22;5924;51.398;7.088;2022-12-20T10:27:48;11.10;99.90
11736;DHT22;5924;51.398;7.088;2022-12-20T10:30:18;11.20;99.90
11736;DHT22;5924;51.398;7.088;2022-12-20T10:32:45;11.20;99.90
11736;DHT22;5924;51.398;7.088;2022-12-20T10:42:56;11.30;99.90
11736;DHT22;5924;51.398;7.088;2022-12-20T10:47:50;11.40;99.90
11736;DHT22;5924;51.398;7.088;2022-12-20T10:50:21;11.50;99.90
11736;DHT22;5924;51.398;7.088;2022-12-20T10:55:39;11.60;99.90
11736;DHT22;5924;51.398;7.088;2022-12-20T10:58:33;11.60;99.90
11736;DHT22;5924;51.398;7.088;2022-12-20T11:01:15;11.70;99.90
11736;DHT22;5924;51.398;7.088;2022-12-20T11:03:58;11.70;99.90
11736;DHT22;5924;51.398;7.088;2022-12-20T11:06:50;11.80;99.90
11736;DHT22;5924;51.398;7.088;2022-12-20T11:12:14;11.90;99.90
11736;DHT22;5924;51.398;7.088;2022-12-20T11:14:42;11.90;99.90
11736;DHT22;5924;51.398;7.088;2022-12-20T11:17:28;11.90;99.90
11736;DHT22;5924;51.398;7.088;2022-12-20T11:25:51;12.00;99.90
11736;DHT22;5924;51.398;7.088;2022-12-20T11:34:12;12.00;99.90
11736;DHT22;5924;51.398;7.088;2022-12-20T11:42:26;11.90;99.90
11736;DHT22;5924;51.398;7.088;2022-12-20T11:48:11;11.90;99.90
11736;DHT22;5924;51.398;7.088;2022-12-20T11:51:03;11.90;99.90
11736;DHT22;5924;51.398;7.088;2022-12-20T11:53:50;11.90;99.90
11736;DHT22;5924;51.398;7.088;2022-12-20T11:56:31;11.90;99.90
11736;DHT22;5924;51.398;7.088;2022-12-20T11:59:34;11.80;99.90
11736;DHT22;5924;51.398;7.088;2022-12-20T12:02:07;11.80;99.90
11736;DHT22;5924;51.398;7.088;2022-12-20T12:04:42;11.80;99.90
11736;DHT22;5924;51.398;7.088;2022-12-20T12:07:14;11.90;99.90
11736;DHT22;5924;51.398;7.088;2022-12-20T12:12:26;11.90;99.90
11736;DHT22;5924;51.398;7.088;2022-12-20T12:18:05;11.80;99.90
11736;DHT22;5924;51.398;7.088;2022-12-20T12:20:35;11.80;99.90
11736;DHT22;5924;51.398;7.088;2022-12-20T12:23:21;11.70;99.90
11736;DHT22;5924;51.398;7.088;2022-12-20T12:25:48;13.50;99.90
11736;DHT22;5924;51.398;7.088;2022-12-20T12:28:17;11.60;99.90
11736;DHT22;5924;51.398;7.088;2022-12-20T12:30:52;11.70;99.90
11736;DHT22;5924;51.398;7.088;2022-12-20T12:33:27;11.70;99.90
11736;DHT22;5924;51.398;7.088;2022-12-20T12:36:37;11.80;99.90
11736;DHT22;5924;51.398;7.088;2022-12-20T12:45:01;12.00;99.90
11736;DHT22;5924;51.398;7.088;2022-12-20T12:47:37;12.00;99.90
11736;DHT22;5924;51.398;7.088;2022-12-20T12:50:06;12.10;99.90
11736;DHT22;5924;51.398;7.088;2022-12-20T12:52:43;12.10;99.90
11736;DHT22;5924;51.398;7.088;2022-12-20T12:55:37;12.10;99.90
11736;DHT22;5924;51.398;7.088;2022-12-20T12:58:33;12.20;99.90
11736;DHT22;5924;51.398;7.088;2022-12-20T13:01:09;12.20;99.90
11736;DHT22;5924;51.398;7.088;2022-12-20T13:03:45;12.10;99.90
11736;DHT22;5924;51.398;7.088;2022-12-20T13:11:38;11.60;99.90
11736;DHT22;5924;51.398;7.088;2022-12-20T13:14:45;11.50;99.90
11736;DHT22;5924;51.398;7.088;2022-12-20T13:29:57;10.80;99.90
11736;DHT22;5924;51.398;7.088;2022-12-20T13:43:50;10.60;99.90
11736;DHT22;5924;51.398;7.088;2022-12-20T13:46:46;10.50;99.90
11736;DHT22;5924;51.398;7.088;2022-12-20T13:49:25;10.50;99.90
11736;DHT22;5924;51.398;7.088;2022-12-20T13:54:40;10.50;99.90
11736;DHT22;5924;51.398;7.088;2022-12-20T13:57:07;10.50;99.90
11736;DHT22;5924;51.398;7.088;2022-12-20T13:59:33;10.40;99.90
11736;DHT22;5924;51.398;7.088;2022-12-20T14:02:00;10.40;99.90
11736;DHT22;5924;51.398;7.088;2022-12-20T14:04:39;10.40;99.90
11736;DHT22;5924;51.398;7.088;2022-12-20T14:07:07;10.30;99.90
11736;DHT22;5924;51.398;7.088;2022-12-20T14:09:35;10.30;99.90
11736;DHT22;5924;51.398;7.088;2022-12-20T14:12:19;10.30;99.90
11736;DHT22;5924;51.398;7.088;2022-12-20T14:14:47;10.30;99.90
11736;DHT22;5924;51.398;7.088;2022-12-20T14:17:29;10.30;99.90
11736;DHT22;5924;51.398;7.088;2022-12-20T14:23:11;10.20;99.90
11736;DHT22;5924;51.398;7.088;2022-12-20T14:25:52;10.20;99.90
11736;DHT22;5924;51.398;7.088;2022-12-20T14:28:35;10.20;99.90
11736;DHT22;5924;51.398;7.088;2022-12-20T14:31:03;10.10;99.90
11736;DHT22;5924;51.398;7.088;2022-12-20T14:38:48;10.10;99.90
11736;DHT22;5924;51.398;7.088;2022-12-20T14:41:31;10.10;99.90
11736;DHT22;5924;51.398;7.088;2022-12-20T14:44:00;10.10;99.90
11736;DHT22;5924;51.398;7.088;2022-12-20T14:46:28;10.10;99.90
11736;DHT22;5924;51.398;7.088;2022-12-20T14:49:20;10.10;99.90
11736;DHT22;5924;51.398;7.088;2022-12-20T14:51:47;10.10;99.90
11736;DHT22;5924;51.398;7.088;2022-12-20T14:56:46;10.10;99.90
11736;DHT22;5924;51.398;7.088;2022-12-20T14:59:20;10.10;99.90
11736;DHT22;5924;51.398;7.088;2022-12-20T15:01:49;10.10;99.90
11736;DHT22;5924;51.398;7.088;2022-12-20T15:06:49;10.10;99.90
11736;DHT22;5924;51.398;7.088;2022-12-20T15:09:17;10.10;99.90
11736;DHT22;5924;51.398;7.088;2022-12-20T15:11:44;10.10;99.90
11736;DHT22;5924;51.398;7.088;2022-12-20T15:14:36;10.10;99.90
11736;DHT22;5924;51.398;7.088;2022-12-20T15:17:09;10.10;99.90
11736;DHT22;5924;51.398;7.088;2022-12-20T15:19:35;10.00;99.90
11736;DHT22;5924;51.398;7.088;2022-12-20T15:22:01;10.00;99.90
11736;DHT22;5924;51.398;7.088;2022-12-20T15:24:28;10.00;99.90
11736;DHT22;5924;51.398;7.088;2022-12-20T15:26:54;10.00;99.90
11736;DHT22;5924;51.398;7.088;2022-12-20T15:29:22;10.00;99.90
11736;DHT22;5924;51.398;7.088;2022-12-20T15:31:49;10.00;99.90
11736;DHT22;5924;51.398;7.088;2022-12-20T15:34:36;10.10;99.90
11736;DHT22;5924;51.398;7.088;2022-12-20T15:37:03;9.90;99.90
11736;DHT22;5924;51.398;7.088;2022-12-20T15:39:29;9.90;99.90
11736;DHT22;5924;51.398;7.088;2022-12-20T15:41:56;9.90;99.90
11736;DHT22;5924;51.398;7.088;2022-12-20T15:44:25;9.90;99.90
11736;DHT22;5924;51.398;7.088;2022-12-20T15:46:50;9.80;99.90
11736;DHT22;5924;51.398;7.088;2022-12-20T15:49:25;9.90;99.90
11736;DHT22;5924;51.398;7.088;2022-12-20T15:51:52;9.80;99.90
11736;DHT22;5924;51.398;7.088;2022-12-20T15:54:26;8.30;99.90
11736;DHT22;5924;51.398;7.088;2022-12-20T15:56:53;9.80;99.90
11736;DHT22;5924;51.398;7.088;2022-12-20T15:59:19;9.80;99.90
11736;DHT22;5924;51.398;7.088;2022-12-20T16:01:44;10.80;99.90
11736;DHT22;5924;51.398;7.088;2022-12-20T16:04:15;9.80;99.90
11736;DHT22;5924;51.398;7.088;2022-12-20T16:06:41;9.80;99.90
11736;DHT22;5924;51.398;7.088;2022-12-20T16:09:08;9.80;99.90
11736;DHT22;5924;51.398;7.088;2022-12-20T16:11:34;9.80;99.90
11736;DHT22;5924;51.398;7.088;2022-12-20T16:14:00;9.80;99.90
11736;DHT22;5924;51.398;7.088;2022-12-20T16:16:31;9.70;99.90
11736;DHT22;5924;51.398;7.088;2022-12-20T16:18:58;9.70;99.90
11736;DHT22;5924;51.398;7.088;2022-12-20T16:21:35;9.70;99.90
11736;DHT22;5924;51.398;7.088;2022-12-20T16:24:08;9.80;99.90
11736;DHT22;5924;51.398;7.088;2022-12-20T16:26:35;9.80;99.90
11736;DHT22;5924;51.398;7.088;2022-12-20T16:29:00;9.80;99.90
11736;DHT22;5924;51.398;7.088;2022-12-20T16:31:29;9.80;99.90
11736;DHT22;5924;51.398;7.088;2022-12-20T16:33:56;9.80;99.90
11736;DHT22;5924;51.398;7.088;2022-12-20T16:36:23;9.80;99.90
11736;DHT22;5924;51.398;7.088;2022-12-20T16:38:49;9.80;99.90
11736;DHT22;5924;51.398;7.088;2022-12-20T16:41:18;9.80;99.90
11736;DHT22;5924;51.398;7.088;2022-12-20T16:43:45;9.80;99.90
11736;DHT22;5924;51.398;7.088;2022-12-20T16:46:22;9.80;99.90
11736;DHT22;5924;51.398;7.088;2022-12-20T16:48:49;9.80;99.90
11736;DHT22;5924;51.398;7.088;2022-12-20T16:53:52;9.80;99.90
11736;DHT22;5924;51.398;7.088;2022-12-20T16:56:18;9.80;99.90
11736;DHT22;5924;51.398;7.088;2022-12-20T16:58:44;9.80;99.90
11736;DHT22;5924;51.398;7.088;2022-12-20T17:01:21;9.80;99.90
11736;DHT22;5924;51.398;7.088;2022-12-20T17:03:50;9.80;99.90
11736;DHT22;5924;51.398;7.088;2022-12-20T17:06:16;9.80;99.90
11736;DHT22;5924;51.398;7.088;2022-12-20T17:08:43;9.80;99.90
11736;DHT22;5924;51.398;7.088;2022-12-20T17:11:17;9.80;99.90
11736;DHT22;5924;51.398;7.088;2022-12-20T17:13:44;9.70;99.90
11736;DHT22;5924;51.398;7.088;2022-12-20T17:16:11;9.70;99.90
11736;DHT22;5924;51.398;7.088;2022-12-20T17:18:43;9.70;99.90
11736;DHT22;5924;51.398;7.088;2022-12-20T17:21:20;9.70;99.90
11736;DHT22;5924;51.398;7.088;2022-12-20T17:23:47;9.70;99.90
11736;DHT22;5924;51.398;7.088;2022-12-20T17:26:15;9.70;99.90
11736;DHT22;5924;51.398;7.088;2022-12-20T17:28:41;9.80;99.90
11736;DHT22;5924;51.398;7.088;2022-12-20T17:33:53;9.80;99.90
11736;DHT22;5924;51.398;7.088;2022-12-20T17:36:19;9.80;99.90
11736;DHT22;5924;51.398;7.088;2022-12-20T17:38:45;9.80;99.90
11736;DHT22;5924;51.398;7.088;2022-12-20T17:41:29;9.80;99.90
11736;DHT22;5924;51.398;7.088;2022-12-20T17:43:56;9.80;99.90
11736;DHT22;5924;51.398;7.088;2022-12-20T17:46:23;9.80;99.90
11736;DHT22;5924;51.398;7.088;2022-12-20T17:48:49;9.80;99.90
11736;DHT22;5924;51.398;7.088;2022-12-20T17:51:26;9.80;99.90
11736;DHT22;5924;51.398;7.088;2022-12-20T17:53:57;9.80;99.90
11736;DHT22;5924;51.398;7.088;2022-12-20T17:56:25;9.80;99.90
11736;DHT22;5924;51.398;7.088;2022-12-20T17:58:51;9.80;99.90
11736;DHT22;5924;51.398;7.088;2022-12-20T18:03:51;9.80;99.90
11736;DHT22;5924;51.398;7.088;2022-12-20T18:06:18;9.80;99.90
11736;DHT22;5924;51.398;7.088;2022-12-20T18:08:51;9.80;99.90
11736;DHT22;5924;51.398;7.088;2022-12-20T18:11:18;9.80;99.90
11736;DHT22;5924;51.398;7.088;2022-12-20T18:13:45;9.80;99.90
11736;DHT22;5924;51.398;7.088;2022-12-20T18:16:13;9.80;99.90
11736;DHT22;5924;51.398;7.088;2022-12-20T18:18:39;9.80;99.90